Time;durP1;ratioP1;P1;durP2;ratioP2;P2;SDS_P1;SDS_P2;PMS_P1;PMS_P2;Temp;Humidity;BMP_temperature;BMP_pressure;BME280_temperature;BME280_humidity;BME280_pressure;Samples;Min_cycle;Max_cycle;Signal;HPM_P1;HPM_P2
2021/11/15 00:02:16;;;;;;;72.07;18.98;;;;;;;6.16;100.00;101976.47;5209620;28;20025;-79
2021/11/15 00:04:47;;;;;;;65.10;18.30;;;;;;;6.11;100.00;101975.59;5211212;28;20033;-78
2021/11/15 00:07:18;;;;;;;60.83;17.13;;;;;;;6.02;100.00;101980.72;5212250;28;20269;-78
2021/11/15 00:09:48;;;;;;;57.05;17.27;;;;;;;6.03;100.00;101972.06;5210631;28;20035;-78
2021/11/15 00:12:18;;;;;;;58.25;17.77;;;;;;;6.05;100.00;101975.59;5212979;28;20540;-77
2021/11/15 00:14:48;;;;;;;57.53;16.90;;;;;;;5.97;100.00;101965.16;5210091;28;20487;-77
2021/11/15 00:17:19;;;;;;;62.65;18.42;;;;;;;5.96;100.00;101970.31;5211631;28;20064;-77
2021/11/15 00:19:49;;;;;;;61.35;16.92;;;;;;;6.00;100.00;101966.88;5213191;28;20024;-77
2021/11/15 00:22:20;;;;;;;60.40;18.00;;;;;;;6.01;100.00;101964.31;5213842;28;20024;-77
2021/11/15 00:24:50;;;;;;;58.38;16.65;;;;;;;5.97;100.00;101964.28;5211794;28;20072;-77
2021/11/15 00:27:21;;;;;;;61.42;17.35;;;;;;;5.97;100.00;101966.88;5214887;28;20062;-77
2021/11/15 00:29:51;;;;;;;49.47;16.20;;;;;;;6.01;100.00;101966.91;5212081;28;20049;-77
2021/11/15 00:32:21;;;;;;;49.75;16.02;;;;;;;6.06;100.00;101964.34;5208058;28;20025;-77
2021/11/15 00:34:52;;;;;;;51.30;16.30;;;;;;;6.04;100.00;101966.91;5206806;28;20379;-78
2021/11/15 00:37:22;;;;;;;55.65;17.40;;;;;;;6.05;100.00;101967.78;5210506;28;20055;-77
2021/11/15 00:39:52;;;;;;;52.72;16.80;;;;;;;6.11;100.00;101963.47;5211472;28;20413;-78
2021/11/15 00:42:23;;;;;;;58.40;18.98;;;;;;;6.12;100.00;101969.53;5212259;28;20033;-78
2021/11/15 00:44:53;;;;;;;61.00;19.27;;;;;;;6.18;100.00;101964.38;5215765;28;20025;-78
2021/11/15 00:47:23;;;;;;;61.03;18.80;;;;;;;6.16;100.00;101966.09;5212689;28;20029;-78
2021/11/15 00:49:54;;;;;;;54.20;17.77;;;;;;;6.28;100.00;101971.34;5215491;28;20040;-78
2021/11/15 00:52:24;;;;;;;60.63;19.90;;;;;;;6.34;100.00;101967.06;5212558;28;20044;-78
2021/11/15 00:54:54;;;;;;;64.90;20.58;;;;;;;6.20;100.00;101973.91;5215734;28;20036;-77
2021/11/15 00:57:25;;;;;;;56.60;20.73;;;;;;;6.32;100.00;101973.09;5209998;28;20060;-78
2021/11/15 00:59:55;;;;;;;62.03;20.70;;;;;;;6.30;100.00;101967.91;5214188;28;20039;-77
2021/11/15 01:02:27;;;;;;;67.68;21.08;;;;;;;6.33;100.00;101974.81;5206278;28;20253;-78
2021/11/15 01:04:57;;;;;;;59.70;21.02;;;;;;;6.30;100.00;101977.41;5205068;28;20439;-78
2021/11/15 01:07:28;;;;;;;69.80;21.00;;;;;;;6.46;100.00;101967.06;5209885;28;20115;-77
2021/11/15 01:09:58;;;;;;;64.35;23.00;;;;;;;6.35;100.00;101973.97;5212474;28;20131;-77
2021/11/15 01:12:28;;;;;;;64.78;22.38;;;;;;;6.37;100.00;101967.06;5210113;28;20044;-78
2021/11/15 01:14:59;;;;;;;65.75;21.67;;;;;;;6.45;100.00;101973.13;5212642;28;20028;-78
2021/11/15 01:17:29;;;;;;;64.47;21.65;;;;;;;6.39;100.00;101977.47;5207479;28;20083;-78
2021/11/15 01:19:59;;;;;;;67.22;21.58;;;;;;;6.41;100.00;101976.59;5196123;28;20476;-78
2021/11/15 01:22:30;;;;;;;59.97;21.40;;;;;;;6.41;100.00;101975.72;5210398;28;20044;-77
2021/11/15 01:25:00;;;;;;;64.90;22.85;;;;;;;6.54;100.00;101973.19;5213719;28;20717;-78
2021/11/15 01:27:30;;;;;;;61.97;22.35;;;;;;;6.51;100.00;101972.28;5211368;28;20033;-78
2021/11/15 01:30:03;;;;;;;69.00;22.63;;;;;;;6.43;100.00;101974.00;5214403;28;20025;-78
2021/11/15 01:32:33;;;;;;;69.13;22.52;;;;;;;6.39;100.00;101965.31;5205894;28;20032;-79
2021/11/15 01:35:05;;;;;;;62.50;21.77;;;;;;;6.38;100.00;101968.78;5206057;28;20017;-77
2021/11/15 01:37:37;;;;;;;67.90;23.00;;;;;;;6.33;100.00;101967.03;5211432;28;20104;-78
2021/11/15 01:40:11;;;;;;;70.68;23.90;;;;;;;6.37;100.00;101979.16;5211684;28;20489;-78
2021/11/15 01:42:42;;;;;;;62.13;22.90;;;;;;;6.31;100.00;101980.03;5210085;28;20044;-77
2021/11/15 01:45:14;;;;;;;75.25;23.98;;;;;;;6.35;100.00;101970.50;5211584;28;20478;-77
2021/11/15 01:47:44;;;;;;;70.13;24.15;;;;;;;6.41;100.00;101967.94;5210860;28;20033;-78
2021/11/15 01:50:17;;;;;;;67.95;23.63;;;;;;;6.38;100.00;101966.19;5211054;28;20046;-78
2021/11/15 01:52:49;;;;;;;79.40;25.73;;;;;;;6.34;100.00;101966.16;5212729;28;20037;-78
2021/11/15 01:55:21;;;;;;;68.80;24.83;;;;;;;6.30;100.00;101960.13;5210488;28;20030;-78
2021/11/15 01:57:53;;;;;;;68.72;24.70;;;;;;;6.23;100.00;101950.56;5213663;28;20029;-78
2021/11/15 02:00:30;;;;;;;64.90;23.75;;;;;;;6.24;100.00;101951.44;5210647;28;20048;-78
2021/11/15 02:03:02;;;;;;;72.05;25.55;;;;;;;6.16;100.00;101960.91;5198386;28;20043;-78
2021/11/15 02:05:32;;;;;;;73.18;25.27;;;;;;;6.17;100.00;101958.34;5206446;28;20037;-78
2021/11/15 02:08:03;;;;;;;72.47;25.77;;;;;;;6.16;100.00;101955.72;5210544;28;20025;-77
2021/11/15 02:10:34;;;;;;;66.97;24.38;;;;;;;6.17;100.00;101962.63;5208219;28;20022;-78
2021/11/15 02:13:04;;;;;;;70.57;25.13;;;;;;;6.19;100.00;101960.91;5213164;28;20170;-77
2021/11/15 02:15:35;;;;;;;67.32;24.00;;;;;;;6.15;100.00;101961.75;5209771;28;20132;-77
2021/11/15 02:18:06;;;;;;;63.55;23.27;;;;;;;6.16;100.00;101958.31;5213133;28;20075;-78
2021/11/15 02:20:56;;;;;;;57.03;21.10;;;;;;;6.22;100.00;101947.97;5211688;28;20491;-78
2021/11/15 02:23:29;;;;;;;61.78;21.63;;;;;;;6.23;100.00;101953.16;5211261;28;20434;-78
2021/11/15 02:26:01;;;;;;;47.58;19.70;;;;;;;5.96;100.00;101955.63;5209350;28;20052;-77
2021/11/15 02:28:37;;;;;;;51.45;20.83;;;;;;;5.91;100.00;101961.66;5216003;28;20037;-76
2021/11/15 02:31:09;;;;;;;54.40;19.92;;;;;;;5.85;100.00;101949.53;5213544;28;20483;-78
2021/11/15 02:33:40;;;;;;;52.80;19.42;;;;;;;5.91;100.00;101948.69;5205570;28;20423;-77
2021/11/15 02:36:10;;;;;;;52.38;20.42;;;;;;;5.75;100.00;101955.47;5213333;28;20040;-77
2021/11/15 02:38:41;;;;;;;50.72;19.35;;;;;;;5.74;100.00;101948.53;5213592;28;20337;-77
2021/11/15 02:41:11;;;;;;;49.88;19.58;;;;;;;5.80;100.00;101947.75;5214674;28;20028;-77
2021/11/15 02:43:41;;;;;;;47.28;19.58;;;;;;;5.87;100.00;101946.91;5213288;28;20036;-77
2021/11/15 02:46:13;;;;;;;49.45;19.80;;;;;;;5.92;100.00;101948.69;5214724;28;20391;-78
2021/11/15 02:48:44;;;;;;;55.05;21.73;;;;;;;6.00;100.00;101947.00;5215218;28;20029;-78
2021/11/15 02:51:15;;;;;;;46.50;19.17;;;;;;;5.77;100.00;101934.75;5215452;28;20034;-78
2021/11/15 02:53:45;;;;;;;45.25;18.95;;;;;;;5.83;100.00;101945.16;5215885;28;20035;-77
2021/11/15 02:56:16;;;;;;;46.25;19.35;;;;;;;5.88;100.00;101933.13;5214636;28;20029;-77
2021/11/15 02:58:46;;;;;;;45.60;18.48;;;;;;;5.91;100.00;101938.31;5215232;28;20069;-77
2021/11/15 03:01:19;;;;;;;45.72;18.55;;;;;;;5.93;100.00;101931.41;5214833;28;20391;-79
2021/11/15 03:03:49;;;;;;;45.58;19.55;;;;;;;5.93;100.00;101934.84;5204680;28;20488;-77
2021/11/15 03:06:19;;;;;;;44.38;18.52;;;;;;;5.95;100.00;101932.28;5213200;28;20064;-77
2021/11/15 03:08:50;;;;;;;46.13;19.05;;;;;;;5.88;100.00;101933.13;5210401;28;20040;-77
2021/11/15 03:11:20;;;;;;;46.55;19.90;;;;;;;5.85;100.00;101927.88;5211430;28;20029;-77
2021/11/15 03:13:51;;;;;;;46.67;19.08;;;;;;;5.76;100.00;101938.19;5214889;28;20100;-77
2021/11/15 03:16:21;;;;;;;47.50;18.70;;;;;;;5.76;100.00;101933.84;5213419;28;20031;-77
2021/11/15 03:18:51;;;;;;;41.28;17.85;;;;;;;5.89;100.00;101930.50;5215410;28;20036;-78
2021/11/15 03:21:23;;;;;;;45.53;18.73;;;;;;;5.85;100.00;101933.94;5212745;28;20475;-77
2021/11/15 03:23:55;;;;;;;44.28;18.10;;;;;;;5.78;100.00;101933.88;5215850;28;20576;-77
2021/11/15 03:26:26;;;;;;;41.40;17.35;;;;;;;5.82;100.00;101933.06;5211495;28;20136;-78
2021/11/15 03:28:57;;;;;;;45.03;18.27;;;;;;;5.88;100.00;101922.75;5215834;28;20488;-77
2021/11/15 03:31:30;;;;;;;40.92;17.15;;;;;;;5.76;100.00;101935.59;5213057;28;20391;-77
2021/11/15 03:34:05;;;;;;;42.10;17.13;;;;;;;5.78;100.00;101932.16;5202419;28;20560;-78
2021/11/15 03:36:36;;;;;;;43.03;17.63;;;;;;;5.90;100.00;101929.66;5213967;28;20316;-78
2021/11/15 03:39:09;;;;;;;42.88;18.05;;;;;;;5.88;100.00;101935.72;5210880;28;20025;-78
2021/11/15 03:41:41;;;;;;;37.88;17.00;;;;;;;5.78;100.00;101937.34;5214370;28;20029;-78
2021/11/15 03:44:13;;;;;;;42.03;17.02;;;;;;;5.77;100.00;101942.53;5213663;28;20108;-77
2021/11/15 03:46:44;;;;;;;39.55;15.63;;;;;;;5.85;100.00;101938.25;5213230;28;20037;-76
2021/11/15 03:49:15;;;;;;;37.00;16.05;;;;;;;5.80;100.00;101937.38;5214029;28;20029;-77
2021/11/15 03:51:45;;;;;;;36.25;14.68;;;;;;;5.89;100.00;101930.50;5212407;28;20044;-77
2021/11/15 03:54:16;;;;;;;34.80;14.95;;;;;;;5.79;100.00;101933.06;5212896;28;20016;-77
2021/11/15 03:56:46;;;;;;;39.70;16.48;;;;;;;5.70;100.00;101938.13;5214149;28;20037;-77
2021/11/15 03:59:17;;;;;;;39.75;17.05;;;;;;;5.72;100.00;101939.88;5212798;28;20024;-77
2021/11/15 04:01:50;;;;;;;38.63;16.80;;;;;;;5.79;100.00;101941.72;5211293;28;20538;-78
2021/11/15 04:04:27;;;;;;;42.55;16.38;;;;;;;5.77;100.00;101937.34;5201545;28;20021;-77
2021/11/15 04:06:57;;;;;;;40.03;15.63;;;;;;;5.85;100.00;101938.25;5213208;28;20036;-77
2021/11/15 04:09:27;;;;;;;39.63;15.98;;;;;;;5.93;100.00;101936.59;5209512;28;20025;-77
2021/11/15 04:11:58;;;;;;;36.03;16.40;;;;;;;5.92;100.00;101940.03;5205997;28;20025;-77
2021/11/15 04:14:28;;;;;;;37.90;16.95;;;;;;;5.83;100.00;101937.38;5215018;28;20029;-78
2021/11/15 04:16:58;;;;;;;38.75;16.60;;;;;;;5.80;100.00;101927.88;5211275;28;20033;-78
2021/11/15 04:19:29;;;;;;;39.65;17.15;;;;;;;5.74;100.00;101934.72;5214722;28;20122;-77
2021/11/15 04:21:59;;;;;;;38.22;15.25;;;;;;;5.83;100.00;101945.16;5211862;28;20034;-76
2021/11/15 04:24:29;;;;;;;36.58;16.08;;;;;;;5.80;100.00;101940.84;5215140;28;20033;-77
2021/11/15 04:27:00;;;;;;;39.20;16.38;;;;;;;5.88;100.00;101935.72;5211858;28;20507;-78
2021/11/15 04:29:30;;;;;;;34.58;16.30;;;;;;;5.78;100.00;101932.16;5215454;28;20518;-78
2021/11/15 04:32:02;;;;;;;38.95;16.35;;;;;;;5.80;100.00;101924.41;5205605;28;20037;-77
2021/11/15 04:34:33;;;;;;;37.03;16.25;;;;;;;5.76;100.00;101927.81;5202626;28;20033;-78
2021/11/15 04:37:04;;;;;;;36.78;15.02;;;;;;;5.85;100.00;101930.47;5212321;28;20049;-77
2021/11/15 04:39:34;;;;;;;38.50;16.42;;;;;;;5.96;100.00;101923.63;5207151;28;20431;-78
2021/11/15 04:42:05;;;;;;;37.33;16.27;;;;;;;5.84;100.00;101915.78;5213674;28;20047;-78
2021/11/15 04:44:35;;;;;;;34.78;15.35;;;;;;;5.75;100.00;101926.09;5210268;28;20025;-78
2021/11/15 04:47:06;;;;;;;36.80;15.73;;;;;;;5.79;100.00;101922.66;5213154;28;20028;-77
2021/11/15 04:49:36;;;;;;;32.72;14.55;;;;;;;5.82;100.00;101918.38;5211368;28;20041;-78
2021/11/15 04:52:07;;;;;;;32.00;14.00;;;;;;;5.95;100.00;101929.69;5211643;28;20166;-78
2021/11/15 04:54:37;;;;;;;30.00;13.65;;;;;;;5.96;100.00;101926.22;5210739;28;20079;-77
2021/11/15 04:57:08;;;;;;;32.50;14.15;;;;;;;5.98;100.00;101929.69;5213196;28;20020;-78
2021/11/15 04:59:39;;;;;;;32.53;14.02;;;;;;;5.97;100.00;101912.38;5212731;22;20399;-77
2021/11/15 05:02:09;;;;;;;31.30;13.43;;;;;;;5.90;100.00;101916.69;5186637;28;20041;-78
2021/11/15 05:04:40;;;;;;;30.65;12.90;;;;;;;5.88;100.00;101907.16;5189563;28;20033;-78
2021/11/15 05:07:10;;;;;;;32.95;13.65;;;;;;;5.86;100.00;101914.06;5190573;28;20037;-78
2021/11/15 05:09:41;;;;;;;29.40;13.48;;;;;;;5.95;100.00;101903.72;5187387;28;20026;-78
2021/11/15 05:12:11;;;;;;;29.10;12.93;;;;;;;6.09;100.00;101908.09;5173184;28;20086;-77
2021/11/15 05:14:41;;;;;;;31.83;12.52;;;;;;;6.02;100.00;101906.34;5190651;28;20098;-78
2021/11/15 05:17:12;;;;;;;28.02;12.75;;;;;;;6.01;100.00;101904.63;5190537;28;20529;-78
2021/11/15 05:19:45;;;;;;;30.92;12.77;;;;;;;5.93;100.00;101901.13;5190638;28;20487;-78
2021/11/15 05:22:15;;;;;;;30.70;13.32;;;;;;;5.86;100.00;101901.97;5189720;28;20079;-77
2021/11/15 05:24:46;;;;;;;29.17;12.80;;;;;;;5.87;100.00;101900.22;5190638;28;20285;-77
2021/11/15 05:27:16;;;;;;;30.15;13.73;;;;;;;5.92;100.00;101901.13;5190373;28;20125;-77
2021/11/15 05:29:46;;;;;;;29.92;13.15;;;;;;;5.85;100.00;101896.75;5190248;28;20030;-77
2021/11/15 05:32:17;;;;;;;39.47;14.75;;;;;;;5.76;100.00;101897.53;5185585;28;20553;-78
2021/11/15 05:34:47;;;;;;;40.38;15.15;;;;;;;5.72;100.00;101903.59;5182645;28;20037;-78
2021/11/15 05:37:18;;;;;;;42.85;15.50;;;;;;;5.74;100.00;101903.59;5188358;28;20037;-78
2021/11/15 05:39:48;;;;;;;35.83;15.82;;;;;;;5.77;100.00;101901.03;5188571;28;20068;-78
2021/11/15 05:42:19;;;;;;;33.60;14.23;;;;;;;5.71;100.00;101903.59;5189119;28;20412;-78
2021/11/15 05:44:49;;;;;;;36.53;15.18;;;;;;;5.67;100.00;101902.69;5191523;28;20017;-77
2021/11/15 05:47:20;;;;;;;38.50;15.68;;;;;;;5.68;100.00;101907.03;5189883;28;20400;-78
2021/11/15 05:49:50;;;;;;;35.70;14.60;;;;;;;5.69;100.00;101913.94;5191093;28;20072;-78
2021/11/15 05:52:23;;;;;;;38.90;15.45;;;;;;;5.68;100.00;101917.41;5190400;28;20025;-78
2021/11/15 05:54:53;;;;;;;35.08;15.23;;;;;;;5.70;100.00;101917.38;5192355;28;20029;-77
2021/11/15 05:57:23;;;;;;;33.08;14.77;;;;;;;5.66;100.00;101910.47;5189216;28;20495;-77
2021/11/15 05:59:54;;;;;;;40.40;14.98;;;;;;;5.71;100.00;101916.56;5197837;28;20347;-77
2021/11/15 06:02:24;;;;;;;40.63;15.68;;;;;;;5.73;100.00;101904.47;5189803;28;20032;-78
2021/11/15 06:04:54;;;;;;;39.97;15.88;;;;;;;5.62;100.00;101907.00;5189062;28;20469;-77
2021/11/15 06:07:24;;;;;;;37.17;15.75;;;;;;;5.61;100.00;101928.56;5195958;28;20108;-77
2021/11/15 06:09:55;;;;;;;38.35;16.00;;;;;;;5.58;100.00;101907.81;5191287;28;20021;-77
2021/11/15 06:12:25;;;;;;;43.70;16.10;;;;;;;5.61;100.00;101913.00;5192725;28;20029;-77
2021/11/15 06:14:56;;;;;;;41.17;15.68;;;;;;;5.66;100.00;101920.84;5188104;28;20087;-78
2021/11/15 06:17:26;;;;;;;41.33;17.30;;;;;;;5.62;100.00;101913.91;5192409;28;20087;-77
2021/11/15 06:19:57;;;;;;;40.50;16.70;;;;;;;5.65;100.00;101911.31;5197882;28;20029;-77
2021/11/15 06:22:27;;;;;;;40.95;17.65;;;;;;;5.67;100.00;101909.59;5194207;28;20052;-77
2021/11/15 06:24:58;;;;;;;44.33;17.23;;;;;;;5.63;100.00;101915.63;5189388;28;20038;-77
2021/11/15 06:27:28;;;;;;;41.70;17.13;;;;;;;5.63;100.00;101915.63;5197433;28;20033;-77
2021/11/15 06:29:58;;;;;;;42.67;17.08;;;;;;;5.61;100.00;101919.94;5193139;28;20026;-78
2021/11/15 06:32:29;;;;;;;41.38;16.58;;;;;;;5.70;100.00;101923.47;5189408;28;20029;-78
2021/11/15 06:34:59;;;;;;;47.58;17.08;;;;;;;5.63;100.00;101926.00;5192835;28;20423;-78
2021/11/15 06:37:30;;;;;;;43.22;16.70;;;;;;;5.62;100.00;101924.28;5196493;28;20123;-78
2021/11/15 06:40:00;;;;;;;43.72;16.90;;;;;;;5.53;100.00;101919.91;5183973;28;20034;-78
2021/11/15 06:42:31;;;;;;;42.85;16.70;;;;;;;5.57;100.00;101918.19;5186386;28;20057;-78
2021/11/15 06:45:03;;;;;;;45.30;17.15;;;;;;;5.56;100.00;101926.84;5163270;28;20349;-78
2021/11/15 06:47:38;;;;;;;45.38;17.27;;;;;;;5.59;100.00;101921.66;5195749;28;20068;-78
2021/11/15 06:50:11;;;;;;;43.35;17.42;;;;;;;5.57;100.00;101923.38;5193904;28;20029;-78
2021/11/15 06:52:41;;;;;;;39.50;16.95;;;;;;;5.61;100.00;101933.75;5194937;28;20120;-78
2021/11/15 06:55:14;;;;;;;47.47;18.77;;;;;;;5.65;100.00;101924.28;5194457;28;20113;-78
2021/11/15 06:57:45;;;;;;;47.90;18.38;;;;;;;5.63;100.00;101936.38;5192873;28;20045;-78
2021/11/15 07:00:21;;;;;;;46.13;17.35;;;;;;;5.65;100.00;101930.34;5193392;28;20033;-78
2021/11/15 07:02:53;;;;;;;38.85;16.63;;;;;;;5.69;100.00;101926.03;5192919;28;20109;-78
2021/11/15 07:05:24;;;;;;;43.60;17.02;;;;;;;5.66;100.00;101928.59;5193836;28;20298;-78
2021/11/15 07:07:55;;;;;;;43.25;17.08;;;;;;;5.67;100.00;101932.94;5192464;28;20057;-78
2021/11/15 07:10:25;;;;;;;36.28;15.75;;;;;;;5.68;100.00;101932.97;5191459;28;20553;-78
2021/11/15 07:12:56;;;;;;;43.15;16.77;;;;;;;5.69;100.00;101933.81;5195839;28;20017;-78
2021/11/15 07:15:26;;;;;;;36.20;15.48;;;;;;;5.66;100.00;101931.19;5191758;28;20036;-78
2021/11/15 07:17:57;;;;;;;37.08;15.20;;;;;;;5.67;100.00;101930.34;5196226;28;20032;-78
2021/11/15 07:20:27;;;;;;;39.28;16.42;;;;;;;5.69;100.00;101945.06;5191794;28;20040;-77
2021/11/15 07:22:57;;;;;;;37.90;16.05;;;;;;;5.72;100.00;101941.63;5195120;28;20052;-78
2021/11/15 07:25:28;;;;;;;35.72;15.45;;;;;;;5.71;100.00;101940.75;5188444;28;20065;-78
2021/11/15 07:27:58;;;;;;;37.97;15.30;;;;;;;5.71;100.00;101945.94;5195980;28;20021;-78
2021/11/15 07:30:28;;;;;;;33.20;15.73;;;;;;;5.74;100.00;101935.56;5191131;28;20519;-78
2021/11/15 07:33:00;;;;;;;36.90;15.13;;;;;;;5.74;100.00;101948.53;5192752;28;20092;-78
2021/11/15 07:35:31;;;;;;;33.08;15.43;;;;;;;5.77;100.00;101948.56;5193733;28;20116;-79
2021/11/15 07:38:01;;;;;;;30.35;13.80;;;;;;;5.76;100.00;101944.22;5190136;28;20097;-78
2021/11/15 07:40:31;;;;;;;38.22;15.63;;;;;;;5.76;100.00;101943.38;5187513;28;20029;-78
2021/11/15 07:43:02;;;;;;;36.72;14.25;;;;;;;5.82;100.00;101933.06;5188984;28;20129;-78
2021/11/15 07:45:32;;;;;;;32.40;13.77;;;;;;;5.80;100.00;101935.66;5191818;28;20029;-78
2021/11/15 07:48:03;;;;;;;34.28;14.00;;;;;;;5.84;100.00;101936.53;5187802;28;20492;-78
2021/11/15 07:50:34;;;;;;;29.15;13.85;;;;;;;5.80;100.00;101937.38;5194427;28;20033;-78
2021/11/15 07:53:05;;;;;;;30.90;13.32;;;;;;;5.79;100.00;101940.84;5192079;28;20057;-78
2021/11/15 07:55:36;;;;;;;33.75;14.20;;;;;;;5.86;100.00;101933.09;5194288;28;20057;-78
2021/11/15 07:58:08;;;;;;;32.78;14.10;;;;;;;5.83;100.00;101930.47;5192820;28;20056;-78
2021/11/15 08:00:38;;;;;;;30.67;13.38;;;;;;;5.92;100.00;101929.66;5193008;28;20079;-78
2021/11/15 08:03:09;;;;;;;30.48;13.30;;;;;;;5.91;100.00;101930.53;5182941;28;20289;-78
2021/11/15 08:05:39;;;;;;;33.17;14.43;;;;;;;5.91;100.00;101926.19;5188150;28;20080;-78
2021/11/15 08:08:09;;;;;;;32.42;13.02;;;;;;;5.95;100.00;101929.69;5171047;28;20737;-78
2021/11/15 08:10:40;;;;;;;27.90;12.50;;;;;;;5.94;100.00;101933.97;5187123;28;20033;-78
2021/11/15 08:13:11;;;;;;;29.40;13.23;;;;;;;5.99;100.00;101939.19;5189393;28;20418;-77
2021/11/15 08:15:41;;;;;;;35.05;13.48;;;;;;;6.08;100.00;101934.06;5187059;28;20040;-78
2021/11/15 08:18:11;;;;;;;32.72;14.02;;;;;;;6.05;100.00;101942.69;5192305;28;20018;-78
2021/11/15 08:20:42;;;;;;;32.00;12.90;;;;;;;6.11;100.00;101941.84;5174276;28;20036;-78
2021/11/15 08:23:15;;;;;;;30.25;13.43;;;;;;;6.05;100.00;101934.06;5192623;28;20045;-78
2021/11/15 08:26:36;;;;;;;29.90;12.55;;;;;;;6.00;100.00;101930.56;5189125;28;20108;-78
2021/11/15 08:29:10;;;;;;;29.83;13.13;;;;;;;6.01;100.00;101933.16;5142122;28;20052;-78
2021/11/15 08:38:38;;;;;;;31.00;12.90;;;;;;;6.08;100.00;101926.28;5190088;28;20029;-78
2021/11/15 08:41:10;;;;;;;27.85;12.70;;;;;;;6.11;100.00;101923.69;5189154;28;20109;-78
2021/11/15 08:43:41;;;;;;;31.67;13.52;;;;;;;6.08;100.00;101921.09;5192999;28;20498;-78
2021/11/15 08:46:15;;;;;;;29.55;13.57;;;;;;;6.12;100.00;101925.44;5193073;28;20092;-78
2021/11/15 08:48:47;;;;;;;34.00;14.40;;;;;;;6.10;100.00;101930.59;5192348;28;20030;-78
2021/11/15 08:51:19;;;;;;;28.80;13.68;;;;;;;6.10;100.00;101920.22;5193143;28;20207;-78
2021/11/15 08:53:50;;;;;;;29.70;13.50;;;;;;;6.20;100.00;101921.13;5191586;28;20452;-79
2021/11/15 08:56:21;;;;;;;30.95;12.95;;;;;;;6.20;100.00;101918.53;5190685;28;20230;-78
2021/11/15 08:58:52;;;;;;;33.40;13.43;;;;;;;6.15;100.00;101922.84;5185819;28;20234;-78
2021/11/15 09:01:25;;;;;;;33.40;13.93;;;;;;;6.19;100.00;101924.56;5190513;28;20087;-78
2021/11/15 09:03:55;;;;;;;36.17;15.50;;;;;;;6.21;100.00;101920.25;5182053;28;20113;-78
2021/11/15 09:06:30;;;;;;;32.45;14.20;;;;;;;6.19;100.00;101925.47;5190668;28;20105;-79
2021/11/15 09:09:03;;;;;;;31.77;13.47;;;;;;;6.25;100.00;101924.63;5181117;28;20091;-78
2021/11/15 09:11:34;;;;;;;37.97;13.38;;;;;;;6.30;100.00;101917.69;5187974;28;20283;-78
2021/11/15 09:14:04;;;;;;;34.53;14.40;;;;;;;6.32;100.00;101915.97;5189336;28;20025;-78
2021/11/15 09:16:34;;;;;;;33.80;14.65;;;;;;;6.30;100.00;101922.91;5186106;28;20045;-78
2021/11/15 09:19:05;;;;;;;33.45;14.40;;;;;;;6.32;100.00;101927.25;5191895;28;20031;-78
2021/11/15 09:21:36;;;;;;;35.05;15.07;;;;;;;6.30;100.00;101922.91;5178658;28;20083;-78
2021/11/15 09:24:07;;;;;;;36.17;15.18;;;;;;;6.36;100.00;101930.69;5179147;28;20025;-78
2021/11/15 09:26:37;;;;;;;35.40;15.07;;;;;;;6.31;100.00;101922.91;5190599;28;20037;-78
2021/11/15 09:29:10;;;;;;;30.85;15.18;;;;;;;6.33;100.00;101925.50;5192143;28;20036;-78
2021/11/15 09:31:41;;;;;;;38.63;16.33;;;;;;;6.32;100.00;101918.56;5189199;28;20395;-78
2021/11/15 09:34:12;;;;;;;40.33;16.48;;;;;;;6.34;100.00;101922.91;5187900;28;20356;-78
2021/11/15 09:36:42;;;;;;;33.45;15.65;;;;;;;6.37;100.00;101930.72;5191807;28;20080;-78
2021/11/15 09:39:14;;;;;;;35.83;15.77;;;;;;;6.41;100.00;101923.81;5186127;28;20294;-78
2021/11/15 09:41:45;;;;;;;34.33;14.98;;;;;;;6.53;100.00;101924.69;5186107;28;20057;-78
2021/11/15 09:44:16;;;;;;;37.25;15.88;;;;;;;6.55;100.00;101929.88;5190693;28;20033;-78
2021/11/15 09:46:47;;;;;;;39.67;17.17;;;;;;;6.56;100.00;101931.63;5193120;28;20434;-79
2021/11/15 09:49:18;;;;;;;35.67;14.98;;;;;;;6.59;100.00;101940.28;5191032;28;20026;-78
2021/11/15 09:51:48;;;;;;;39.90;15.77;;;;;;;6.56;100.00;101936.84;5193750;28;20037;-77
2021/11/15 09:54:19;;;;;;;37.58;16.63;;;;;;;6.53;100.00;101945.47;5188722;28;20427;-77
2021/11/15 09:56:51;;;;;;;37.97;16.65;;;;;;;6.64;100.00;101940.28;5191217;28;20029;-78
2021/11/15 09:59:24;;;;;;;37.70;16.75;;;;;;;6.62;100.00;101934.25;5189418;28;20200;-77
2021/11/15 10:01:56;;;;;;;34.08;16.42;;;;;;;6.50;100.00;101935.09;5189106;28;20431;-78
2021/11/15 10:04:27;;;;;;;41.53;17.08;;;;;;;6.59;100.00;101939.44;5187822;28;20275;-78
2021/11/15 10:06:57;;;;;;;35.55;15.15;;;;;;;6.50;100.00;101940.28;5189805;28;20562;-78
2021/11/15 10:09:30;;;;;;;36.05;15.63;;;;;;;6.54;100.00;101943.72;5179351;28;20383;-78
2021/11/15 10:12:09;;;;;;;34.42;15.27;;;;;;;6.45;100.00;101943.72;5187345;28;20464;-78
2021/11/15 10:15:04;;;;;;;35.17;14.65;;;;;;;6.51;100.00;101943.72;5162928;28;20381;-77
2021/11/15 10:17:52;;;;;;;33.10;15.05;;;;;;;6.42;100.00;101944.56;5178256;28;20542;-78
2021/11/15 10:20:22;;;;;;;38.10;17.90;;;;;;;6.36;100.00;101948.88;5187100;28;20067;-78
2021/11/15 10:22:56;;;;;;;37.88;17.10;;;;;;;6.36;100.00;101948.88;5188697;28;20061;-78
2021/11/15 10:25:31;;;;;;;45.08;17.67;;;;;;;6.35;100.00;101944.53;5173827;28;20561;-78
2021/11/15 10:28:09;;;;;;;41.87;17.87;;;;;;;6.31;100.00;101945.41;5184748;28;20484;-78
2021/11/15 10:30:39;;;;;;;40.70;17.23;;;;;;;6.34;100.00;101938.50;5172807;28;20105;-78
2021/11/15 10:33:11;;;;;;;45.50;19.58;;;;;;;6.30;100.00;101938.47;5178737;28;20108;-78
2021/11/15 10:35:48;;;;;;;41.65;18.48;;;;;;;6.34;100.00;101940.22;5184923;28;20038;-78
2021/11/15 10:38:38;;;;;;;42.60;19.35;;;;;;;6.34;100.00;101942.81;5183190;28;20021;-78
2021/11/15 10:41:18;;;;;;;49.13;19.88;;;;;;;6.38;100.00;101932.44;5183999;28;20052;-78
2021/11/15 10:43:58;;;;;;;44.45;19.55;;;;;;;6.29;100.00;101927.19;5189448;28;20040;-78
2021/11/15 10:46:30;;;;;;;48.67;21.17;;;;;;;6.30;100.00;101928.09;5189191;28;20034;-77
2021/11/15 10:49:03;;;;;;;51.55;20.98;;;;;;;6.26;100.00;101921.16;5191518;28;20605;-78
2021/11/15 10:51:52;;;;;;;46.53;20.13;;;;;;;6.24;100.00;101920.28;5174266;28;20130;-78
2021/11/15 10:57:22;;;;;;;41.13;18.30;;;;;;;6.28;100.00;101922.88;5190574;28;20033;-77
2021/11/15 11:00:05;;;;;;;46.60;18.70;;;;;;;6.28;100.00;101911.66;5218415;22;20041;-82
2021/11/15 11:02:45;;;;;;;39.95;19.05;;;;;;;6.25;100.00;101909.03;5192058;28;20036;-83
2021/11/15 11:05:20;;;;;;;44.05;18.65;;;;;;;6.26;100.00;101905.59;5201491;28;20032;-83
2021/11/15 11:08:07;;;;;;;49.38;17.75;;;;;;;6.22;100.00;101904.69;5200780;28;20025;-83
2021/11/15 11:10:47;;;;;;;47.72;18.77;;;;;;;6.24;100.00;101902.13;5198791;28;20609;-82
2021/11/15 11:13:20;;;;;;;40.05;18.48;;;;;;;6.31;100.00;101903.84;5199202;28;20044;-83
2021/11/15 11:15:53;;;;;;;43.22;18.63;;;;;;;6.32;100.00;101905.59;5195246;28;20276;-83
2021/11/15 11:18:47;;;;;;;40.85;18.67;;;;;;;6.22;100.00;101914.22;5198902;28;20483;-83
2021/11/15 11:24:33;;;;;;;40.80;18.27;;;;;;;6.20;100.00;101909.03;5191037;28;20037;-83
2021/11/15 11:27:09;;;;;;;45.03;18.20;;;;;;;6.25;100.00;101903.84;5194968;28;20392;-82
2021/11/15 11:29:47;;;;;;;39.83;17.58;;;;;;;6.18;100.00;101900.38;5197244;28;20096;-82
2021/11/15 11:32:22;;;;;;;45.35;18.10;;;;;;;6.20;100.00;101909.03;5200762;28;20064;-83
2021/11/15 11:34:56;;;;;;;43.60;18.90;;;;;;;6.23;100.00;101902.97;5200044;28;20021;-83
2021/11/15 11:37:29;;;;;;;38.15;17.48;;;;;;;6.24;100.00;101912.50;5195971;28;20034;-83
2021/11/15 11:40:03;;;;;;;45.50;18.90;;;;;;;6.23;100.00;101895.19;5202129;28;20021;-83
2021/11/15 11:42:33;;;;;;;42.38;19.10;;;;;;;6.27;100.00;101902.97;5194838;28;20026;-83
2021/11/15 11:45:07;;;;;;;48.30;20.02;;;;;;;6.30;100.00;101899.53;5197592;28;20037;-83